createdAt,value
2019-04-20T00:01:33.624Z,89.66
2019-04-20T00:04:03.533Z,90.25
2019-04-20T00:06:41.695Z,90.88
2019-04-20T00:09:17.154Z,91.01
2019-04-20T00:11:58.972Z,91.13
2019-04-20T00:14:24.608Z,92.06
2019-04-20T00:16:52.925Z,92.27
2019-04-20T00:19:33.597Z,93.01
2019-04-20T00:22:08.040Z,93.47
2019-04-20T00:25:12.048Z,94.06
2019-04-20T00:28:16.300Z,94.33
2019-04-20T00:30:54.330Z,94.66
2019-04-20T00:33:21.687Z,95.07
2019-04-20T00:35:42.123Z,95.06
2019-04-20T00:38:15.981Z,95.00
2019-04-20T00:40:57.614Z,95.32
2019-04-20T00:43:28.119Z,95.73
2019-04-20T00:46:01.981Z,95.94
2019-04-20T00:48:42.890Z,96.83
2019-04-20T00:51:24.106Z,97.59
2019-04-20T00:53:43.318Z,98.07
2019-04-20T00:56:13.980Z,98.59
2019-04-20T00:58:58.235Z,98.83
2019-04-20T01:01:46.248Z,99.54
2019-04-20T01:04:15.076Z,99.58
2019-04-20T01:07:01.694Z,99.62
2019-04-20T01:09:45.454Z,99.92
2019-04-20T01:12:24.238Z,99.80
2019-04-20T01:14:57.349Z,99.82
2019-04-20T01:17:26.027Z,99.42
2019-04-20T01:19:58.055Z,98.82
2019-04-20T01:22:40.161Z,98.67
2019-04-20T01:25:09.737Z,98.41
2019-04-20T01:27:58.850Z,98.41
2019-04-20T01:30:23.553Z,98.05
2019-04-20T01:33:02.527Z,97.77
2019-04-20T01:35:40.826Z,97.21
2019-04-20T01:38:12.552Z,96.67
2019-04-20T01:40:29.583Z,96.67
2019-04-20T01:43:01.635Z,96.78
2019-04-20T01:45:37.888Z,97.08
2019-04-20T01:48:08.244Z,97.65
2019-04-20T01:50:52.112Z,98.01
2019-04-20T01:53:29.320Z,98.23
2019-04-20T01:56:07.273Z,98.58
2019-04-20T01:59:02.694Z,99.59
2019-04-20T02:01:36.183Z,100.00
2019-04-20T02:04:22.452Z,100.00
2019-04-20T02:06:53.216Z,100.00
2019-04-20T02:09:25.617Z,100.00
2019-04-20T02:11:55.691Z,100.00
2019-04-20T02:14:35.548Z,100.00
2019-04-20T02:17:13.019Z,100.00
2019-04-20T02:19:58.536Z,100.00
2019-04-20T02:22:23.127Z,100.00
2019-04-20T02:24:42.713Z,100.00
2019-04-20T02:27:14.810Z,100.00
2019-04-20T02:30:13.402Z,100.00
2019-04-20T02:32:55.578Z,100.00
2019-04-20T02:35:53.962Z,100.00
2019-04-20T02:38:45.020Z,100.00
2019-04-20T02:41:21.459Z,100.00
2019-04-20T02:43:46.842Z,100.00
2019-04-20T02:46:06.761Z,100.00
2019-04-20T02:48:40.068Z,100.00
2019-04-20T02:51:16.009Z,100.00
2019-04-20T02:54:09.524Z,100.00
2019-04-20T02:56:32.405Z,100.00
2019-04-20T02:59:14.704Z,100.00
2019-04-20T03:01:43.452Z,100.00
2019-04-20T03:04:00.768Z,100.00
2019-04-20T03:06:42.561Z,100.00
2019-04-20T03:09:29.694Z,100.00
2019-04-20T03:14:26.617Z,100.00
2019-04-20T03:17:10.417Z,100.00
2019-04-20T03:19:36.212Z,100.00
2019-04-20T03:22:16.075Z,100.00
2019-04-20T03:24:49.592Z,100.00
2019-04-20T03:27:25.058Z,100.00
2019-04-20T03:30:22.820Z,100.00
2019-04-20T03:38:02.826Z,100.00
2019-04-20T03:40:27.508Z,100.00
2019-04-20T03:42:44.697Z,100.00
2019-04-20T03:45:20.998Z,100.00
2019-04-20T03:48:03.084Z,100.00
2019-04-20T03:50:46.303Z,100.00
2019-04-20T03:53:23.009Z,100.00
2019-04-20T03:56:21.556Z,100.00
2019-04-20T03:59:01.280Z,100.00
2019-04-20T04:04:38.882Z,100.00
2019-04-20T04:06:59.768Z,100.00
2019-04-20T04:09:37.022Z,100.00
2019-04-20T04:12:56.838Z,100.00
2019-04-20T04:15:29.622Z,100.00
2019-04-20T04:18:08.876Z,100.00
2019-04-20T04:20:43.620Z,100.00
2019-04-20T04:23:22.018Z,100.00
2019-04-20T04:26:00.723Z,100.00
2019-04-20T04:28:32.596Z,100.00
2019-04-20T04:36:13.538Z,100.00
2019-04-20T04:38:53.535Z,100.00
2019-04-20T04:41:27.038Z,100.00
2019-04-20T04:43:58.897Z,100.00
2019-04-20T04:46:14.364Z,100.00
2019-04-20T04:48:50.792Z,100.00
2019-04-20T04:51:24.718Z,100.00
2019-04-20T04:54:01.766Z,100.00
2019-04-20T04:56:29.963Z,100.00
2019-04-20T04:59:02.348Z,100.00
2019-04-20T05:01:37.211Z,100.00
2019-04-20T05:04:25.143Z,100.00
2019-04-20T05:06:58.205Z,100.00
2019-04-20T05:09:17.041Z,100.00
2019-04-20T05:11:56.135Z,100.00
2019-04-20T05:14:32.520Z,100.00
2019-04-20T05:17:11.669Z,100.00
2019-04-20T05:19:47.817Z,100.00
2019-04-20T05:22:27.562Z,100.00
2019-04-20T05:25:12.852Z,100.00
2019-04-20T05:27:51.057Z,95.55
2019-04-20T05:30:09.829Z,88.46
2019-04-20T05:32:54.386Z,84.07
2019-04-20T05:35:38.098Z,80.16
2019-04-20T05:38:22.960Z,78.02
2019-04-20T05:40:51.453Z,75.76
2019-04-20T05:43:37.198Z,75.42
2019-04-20T05:46:18.390Z,73.66
2019-04-20T05:48:53.299Z,71.68
2019-04-20T05:51:29.770Z,68.72
2019-04-20T05:53:58.787Z,68.41
2019-04-20T05:56:35.848Z,66.03
2019-04-20T05:59:04.496Z,65.07
2019-04-20T06:01:45.249Z,63.26
2019-04-20T06:04:28.385Z,62.22
2019-04-20T06:06:56.009Z,61.08
2019-04-20T06:09:33.878Z,58.93
2019-04-20T06:12:15.995Z,56.80
2019-04-20T06:14:52.268Z,55.44
2019-04-20T06:17:52.856Z,54.21
2019-04-20T06:20:31.288Z,53.42
2019-04-20T06:23:25.707Z,53.73
2019-04-20T06:26:13.447Z,53.49
2019-04-20T06:28:43.886Z,52.61
2019-04-20T06:31:42.652Z,52.25
2019-04-20T06:34:33.373Z,52.64
2019-04-20T06:37:02.095Z,50.56
2019-04-20T06:39:54.673Z,48.02
2019-04-20T06:42:37.055Z,49.39
2019-04-20T06:45:20.187Z,50.21
2019-04-20T06:47:57.566Z,50.41
2019-04-20T06:50:30.403Z,48.84
2019-04-20T06:53:41.630Z,46.21
2019-04-20T06:56:29.800Z,44.33
2019-04-20T06:59:25.862Z,43.52
2019-04-20T07:02:04.023Z,43.02
2019-04-20T07:07:18.446Z,41.83
2019-04-20T07:10:06.720Z,40.43
2019-04-20T07:12:27.320Z,40.32
2019-04-20T07:15:06.514Z,39.30
2019-04-20T07:20:51.596Z,37.90
2019-04-20T07:23:26.516Z,36.31
2019-04-20T07:26:12.748Z,36.15
2019-04-20T07:28:48.548Z,34.47
2019-04-20T07:31:18.200Z,34.78
2019-04-20T07:34:04.675Z,33.77
2019-04-20T07:36:50.307Z,32.64
2019-04-20T07:39:27.947Z,31.89
2019-04-20T07:42:12.114Z,31.70
2019-04-20T07:44:58.064Z,30.90
2019-04-20T07:50:21.272Z,29.33
2019-04-20T07:53:06.698Z,29.65
2019-04-20T07:55:55.164Z,28.83
2019-04-20T07:58:27.342Z,28.12
2019-04-20T08:01:40.189Z,27.36
2019-04-20T08:04:13.213Z,26.77
2019-04-20T08:06:41.902Z,27.24
2019-04-20T08:09:25.979Z,27.33
2019-04-20T08:12:28.244Z,26.08
2019-04-20T08:15:04.922Z,24.37
2019-04-20T08:17:44.302Z,24.92
2019-04-20T08:20:16.155Z,24.03
2019-04-20T08:22:53.077Z,21.89
2019-04-20T08:25:16.282Z,20.79
2019-04-20T08:27:57.101Z,20.85
2019-04-20T08:31:17.848Z,20.31
2019-04-20T08:34:07.526Z,20.62
2019-04-20T08:36:33.548Z,20.41
2019-04-20T08:41:50.397Z,19.83
2019-04-20T08:47:21.781Z,18.64
2019-04-20T08:49:41.110Z,20.21
2019-04-20T08:52:34.387Z,19.66
2019-04-20T08:54:41.465Z,19.73
2019-04-20T08:57:04.953Z,19.29
2019-04-20T08:59:43.622Z,18.87
2019-04-20T09:02:18.843Z,19.55
2019-04-20T09:04:59.141Z,19.45
2019-04-20T09:07:33.361Z,19.30
2019-04-20T09:10:30.792Z,18.83
2019-04-20T09:12:54.669Z,18.37
2019-04-20T09:15:21.131Z,18.05
2019-04-20T09:18:09.290Z,18.09
2019-04-20T09:20:48.700Z,17.37
2019-04-20T09:23:30.018Z,17.62
2019-04-20T09:26:10.458Z,17.44
2019-04-20T09:28:54.470Z,18.36
2019-04-20T09:31:35.462Z,17.82
2019-04-20T09:34:34.038Z,16.87
2019-04-20T09:37:26.056Z,17.00
2019-04-20T09:40:21.859Z,16.73
2019-04-20T09:42:51.610Z,16.84
2019-04-20T09:45:37.073Z,15.67
2019-04-20T09:48:12.550Z,15.44
2019-04-20T09:50:59.484Z,16.23
2019-04-20T09:53:32.579Z,15.56
2019-04-20T09:56:08.776Z,16.07
2019-04-20T09:58:45.378Z,15.79
2019-04-20T10:01:13.567Z,16.24
2019-04-20T10:03:36.639Z,16.68
2019-04-20T10:06:10.003Z,16.70
2019-04-20T10:08:49.216Z,16.72
2019-04-20T10:11:19.185Z,14.69
2019-04-20T10:13:54.270Z,16.18
2019-04-20T10:16:27.595Z,15.51
2019-04-20T10:19:00.868Z,14.66
2019-04-20T10:21:35.980Z,14.66
2019-04-20T10:24:10.644Z,14.67
2019-04-20T10:26:44.943Z,15.07
2019-04-20T10:29:19.621Z,14.78
2019-04-20T10:31:58.631Z,12.50
2019-04-20T10:34:30.587Z,11.51
2019-04-20T10:37:23.873Z,11.58
2019-04-20T10:39:58.527Z,11.25
2019-04-20T10:42:32.276Z,11.12
2019-04-20T10:45:07.038Z,11.74
2019-04-20T10:47:41.082Z,12.30
2019-04-20T10:50:15.017Z,12.00
2019-04-20T10:52:49.892Z,11.93
2019-04-20T10:55:25.053Z,11.73
2019-04-20T10:57:59.733Z,11.77
2019-04-20T11:00:50.092Z,11.92
2019-04-20T11:03:24.743Z,12.70
2019-04-20T11:05:58.539Z,13.08
2019-04-20T11:08:32.904Z,13.20
2019-04-20T11:11:13.001Z,12.70
2019-04-20T11:13:41.470Z,12.01
2019-04-20T11:16:14.824Z,11.71
2019-04-20T11:18:49.395Z,12.56
2019-04-20T11:21:24.624Z,12.25
2019-04-20T11:24:00.322Z,12.75
2019-04-20T11:26:37.980Z,12.54
2019-04-20T11:29:10.549Z,12.40
2019-04-20T11:31:49.467Z,11.57
2019-04-20T11:34:25.792Z,10.57
2019-04-20T11:36:57.256Z,11.05
2019-04-20T11:39:30.874Z,12.77
2019-04-20T11:42:05.655Z,12.26
2019-04-20T11:44:39.187Z,12.22
2019-04-20T11:47:14.733Z,12.24
2019-04-20T11:49:49.376Z,13.09
2019-04-20T11:52:24.953Z,12.51
2019-04-20T11:54:58.577Z,12.83
2019-04-20T11:57:33.430Z,13.80
2019-04-20T12:00:08.740Z,13.61
2019-04-20T12:03:09.814Z,13.67
2019-04-20T12:05:43.015Z,13.08
2019-04-20T12:08:13.176Z,13.65
2019-04-20T12:10:50.303Z,13.59
2019-04-20T12:13:24.682Z,13.78
2019-04-20T12:15:59.463Z,14.01
2019-04-20T12:18:33.725Z,13.46
2019-04-20T12:21:08.562Z,12.84
2019-04-20T12:23:42.385Z,12.77
2019-04-20T12:26:16.560Z,12.52
2019-04-20T12:28:50.125Z,12.69
2019-04-20T12:31:27.164Z,12.76
2019-04-20T12:33:58.641Z,13.93
2019-04-20T12:36:37.247Z,14.52
2019-04-20T12:39:11.113Z,14.71
2019-04-20T12:41:52.876Z,14.32
2019-04-20T12:44:19.990Z,13.91
2019-04-20T12:46:54.249Z,14.65
2019-04-20T12:49:29.490Z,15.26
2019-04-20T12:52:06.425Z,14.74
2019-04-20T12:54:41.147Z,13.78
2019-04-20T12:57:16.564Z,13.69
2019-04-20T12:59:52.330Z,13.31
2019-04-20T13:02:29.293Z,13.08
2019-04-20T13:05:03.692Z,12.62
2019-04-20T13:07:42.054Z,12.72
2019-04-20T13:10:13.685Z,12.96
2019-04-20T13:13:00.836Z,13.42
2019-04-20T13:15:54.340Z,13.92
2019-04-20T13:18:47.611Z,15.24
2019-04-20T13:21:22.977Z,15.18
2019-04-20T13:23:56.554Z,14.59
2019-04-20T13:26:30.973Z,14.92
2019-04-20T13:29:06.463Z,15.49
2019-04-20T13:31:41.761Z,15.00
2019-04-20T13:34:17.320Z,14.96
2019-04-20T13:36:52.465Z,14.69
2019-04-20T13:39:26.847Z,14.75
2019-04-20T13:42:10.302Z,15.28
2019-04-20T13:44:36.933Z,15.24
2019-04-20T13:47:10.439Z,15.19
2019-04-20T13:49:45.183Z,14.92
2019-04-20T13:52:22.586Z,14.50
2019-04-20T13:54:58.028Z,15.29
2019-04-20T13:57:40.215Z,15.75
2019-04-20T14:00:38.709Z,15.70
2019-04-20T14:03:16.596Z,16.46
2019-04-20T14:05:50.823Z,17.41
2019-04-20T14:08:35.662Z,17.40
2019-04-20T14:11:11.465Z,16.90
2019-04-20T14:13:53.620Z,16.68
2019-04-20T14:16:23.188Z,16.96
2019-04-20T14:18:58.783Z,16.52
2019-04-20T14:21:32.212Z,16.13
2019-04-20T14:24:06.686Z,15.99
2019-04-20T14:26:43.741Z,15.92
2019-04-20T14:29:17.395Z,15.76
2019-04-20T14:31:52.133Z,16.02
2019-04-20T14:34:29.016Z,16.10
2019-04-20T14:37:02.668Z,17.06
2019-04-20T14:39:38.828Z,17.22
2019-04-20T14:42:23.305Z,17.65
2019-04-20T14:44:50.097Z,17.90
2019-04-20T14:47:27.876Z,17.61
2019-04-20T14:50:03.095Z,18.22
2019-04-20T14:52:37.703Z,17.80
2019-04-20T14:55:15.512Z,18.49
2019-04-20T14:57:49.553Z,18.98
2019-04-20T15:00:56.536Z,19.55
2019-04-20T15:03:38.313Z,20.36
2019-04-20T15:06:13.601Z,20.82
2019-04-20T15:08:50.441Z,21.35
2019-04-20T15:11:24.973Z,22.29
2019-04-20T15:14:02.961Z,22.85
2019-04-20T15:16:38.353Z,22.77
2019-04-20T15:19:36.031Z,22.55
2019-04-20T15:22:33.770Z,22.77
2019-04-20T15:25:09.469Z,22.97
2019-04-20T15:27:46.317Z,23.41
2019-04-20T15:30:20.519Z,23.68
2019-04-20T15:32:56.840Z,23.59
2019-04-20T15:35:40.104Z,23.64
2019-04-20T15:38:17.494Z,23.74
2019-04-20T15:40:53.286Z,23.97
2019-04-20T15:43:31.077Z,24.24
2019-04-20T15:46:07.577Z,24.13
2019-04-20T15:48:42.125Z,23.91
2019-04-20T15:51:17.153Z,23.97
2019-04-20T15:53:55.629Z,23.63
2019-04-20T15:56:30.569Z,23.37
2019-04-20T15:59:04.454Z,23.57
2019-04-20T16:02:03.110Z,24.27
2019-04-20T16:04:56.495Z,24.91
2019-04-20T16:07:40.694Z,25.46
2019-04-20T16:10:13.005Z,25.43
2019-04-20T16:12:52.706Z,25.62
2019-04-20T16:15:25.348Z,26.22
2019-04-20T16:18:00.817Z,26.70
2019-04-20T16:20:47.293Z,27.01
2019-04-20T16:23:14.409Z,27.09
2019-04-20T16:26:08.676Z,26.92
2019-04-20T16:28:51.759Z,26.95
2019-04-20T16:31:29.167Z,27.16
2019-04-20T16:34:07.743Z,27.63
2019-04-20T16:36:42.626Z,27.89
2019-04-20T16:39:16.522Z,28.14
2019-04-20T16:41:51.166Z,28.58
2019-04-20T16:44:35.481Z,28.90
2019-04-20T16:47:12.512Z,29.30
2019-04-20T16:49:50.864Z,29.49
2019-04-20T16:52:38.885Z,29.78
2019-04-20T16:55:14.633Z,29.85
2019-04-20T16:57:53.661Z,30.14
2019-04-20T17:00:31.597Z,30.67
2019-04-20T17:03:13.174Z,30.96
2019-04-20T17:05:51.301Z,31.55
2019-04-20T17:08:27.012Z,31.98
2019-04-20T17:11:03.479Z,32.29
2019-04-20T17:13:53.751Z,32.77
2019-04-20T17:16:37.674Z,33.20
2019-04-20T17:19:15.594Z,33.33
2019-04-20T17:22:03.553Z,33.63
2019-04-20T17:24:39.996Z,34.26
2019-04-20T17:27:51.440Z,34.23
2019-04-20T17:30:49.045Z,34.64
2019-04-20T17:33:55.121Z,34.93
2019-04-20T17:36:44.312Z,35.29
2019-04-20T17:39:45.518Z,35.57
2019-04-20T17:42:46.201Z,35.75
2019-04-20T17:45:28.615Z,35.79
2019-04-20T17:48:09.726Z,36.14
2019-04-20T17:50:54.594Z,36.11
2019-04-20T17:53:32.264Z,36.39
2019-04-20T17:55:54.897Z,36.11
2019-04-20T17:58:35.938Z,36.26
2019-04-20T18:01:41.302Z,36.27
2019-04-20T18:04:57.444Z,35.92
2019-04-20T18:07:04.327Z,36.14
2019-04-20T18:09:56.484Z,36.16
2019-04-20T18:12:31.098Z,36.24
2019-04-20T18:15:17.016Z,36.55
2019-04-20T18:18:15.716Z,37.01
2019-04-20T18:20:54.929Z,37.41
2019-04-20T18:23:44.756Z,37.56
2019-04-20T18:26:48.163Z,38.11
2019-04-20T18:29:32.559Z,38.26
2019-04-20T18:32:07.695Z,38.52
2019-04-20T18:35:20.643Z,39.54
2019-04-20T18:38:09.758Z,40.91
2019-04-20T18:41:02.676Z,42.73
2019-04-20T18:44:20.197Z,43.60
2019-04-20T18:47:23.724Z,44.39
2019-04-20T18:49:58.537Z,43.84
2019-04-20T18:52:39.939Z,44.80
2019-04-20T18:55:33.244Z,45.72
2019-04-20T18:58:13.585Z,46.23
2019-04-20T19:01:15.003Z,45.89
2019-04-20T19:04:07.799Z,45.49
2019-04-20T19:07:06.220Z,45.65
2019-04-20T19:09:53.289Z,46.20
2019-04-20T19:12:50.313Z,45.83
2019-04-20T19:16:15.219Z,45.87
2019-04-20T19:19:30.245Z,45.51
2019-04-20T19:22:06.348Z,45.24
2019-04-20T19:24:51.770Z,45.11
2019-04-20T19:27:35.872Z,45.17
2019-04-20T19:30:21.426Z,44.92
2019-04-20T19:33:18.986Z,45.07
2019-04-20T19:35:50.121Z,45.18
2019-04-20T19:38:22.638Z,46.02
2019-04-20T19:41:18.990Z,46.10
2019-04-20T19:44:19.219Z,45.69
2019-04-20T19:47:28.448Z,46.08
2019-04-20T19:50:36.735Z,46.80
2019-04-20T19:53:11.221Z,47.07
2019-04-20T19:55:47.912Z,46.95
2019-04-20T19:58:52.953Z,46.77
2019-04-20T20:01:29.401Z,48.27
2019-04-20T20:04:19.698Z,48.55
2019-04-20T20:07:28.689Z,50.43
2019-04-20T20:10:10.594Z,50.90
2019-04-20T20:13:02.591Z,50.90
2019-04-20T20:16:00.835Z,50.97
2019-04-20T20:18:53.285Z,51.03
2019-04-20T20:21:51.484Z,51.50
2019-04-20T20:24:27.191Z,52.04
2019-04-20T20:27:22.879Z,51.95
2019-04-20T20:30:20.474Z,52.29
2019-04-20T20:33:11.610Z,52.58
2019-04-20T20:35:48.091Z,53.15
2019-04-20T20:38:34.014Z,53.68
2019-04-20T20:41:10.340Z,53.52
2019-04-20T20:44:03.114Z,54.31
2019-04-20T20:46:34.828Z,54.38
2019-04-20T20:49:21.617Z,58.37
2019-04-20T20:52:05.903Z,58.22
2019-04-20T20:54:44.877Z,58.11
2019-04-20T20:57:21.910Z,58.51
2019-04-20T20:59:57.461Z,57.68
2019-04-20T21:02:39.000Z,57.73
2019-04-20T21:05:05.874Z,58.47
2019-04-20T21:07:42.649Z,58.16
2019-04-20T21:10:25.884Z,58.62
2019-04-20T21:13:01.363Z,58.87
2019-04-20T21:15:33.429Z,58.74
2019-04-20T21:18:34.892Z,59.51
2019-04-20T21:21:01.066Z,60.90
2019-04-20T21:23:35.306Z,60.89
2019-04-20T21:26:17.912Z,59.75
2019-04-20T21:28:46.058Z,60.12
2019-04-20T21:31:24.228Z,60.05
2019-04-20T21:33:55.221Z,60.01
2019-04-20T21:36:31.341Z,60.97
2019-04-20T21:39:09.691Z,60.75
2019-04-20T21:41:49.668Z,60.25
2019-04-20T21:44:21.525Z,60.40
2019-04-20T21:46:54.602Z,59.92
2019-04-20T21:49:42.245Z,59.90
2019-04-20T21:52:18.376Z,60.70
2019-04-20T21:54:45.716Z,62.53
2019-04-20T21:57:20.010Z,60.35
2019-04-20T22:00:08.491Z,60.39
2019-04-20T22:02:44.678Z,60.76
2019-04-20T22:05:13.577Z,61.15
2019-04-20T22:07:50.348Z,61.50
2019-04-20T22:10:29.523Z,61.91
2019-04-20T22:13:02.707Z,62.51
2019-04-20T22:15:45.973Z,63.29
2019-04-20T22:18:16.501Z,62.60
2019-04-20T22:21:04.536Z,63.09
2019-04-20T22:23:43.689Z,62.84
2019-04-20T22:26:20.261Z,62.41
2019-04-20T22:28:44.627Z,62.30
2019-04-20T22:31:20.245Z,62.31
2019-04-20T22:33:56.256Z,62.86
2019-04-20T22:36:34.365Z,63.06
2019-04-20T22:39:18.724Z,67.60
2019-04-20T22:42:02.013Z,68.25
2019-04-20T22:44:34.215Z,68.56
2019-04-20T22:47:14.992Z,71.03
2019-04-20T22:50:00.062Z,72.85
2019-04-20T22:52:36.225Z,74.54
2019-04-20T22:55:19.855Z,74.05
2019-04-20T22:57:46.893Z,75.89
2019-04-20T23:00:14.538Z,76.63
2019-04-20T23:02:46.942Z,77.41
2019-04-20T23:05:22.779Z,78.56
2019-04-20T23:07:57.058Z,79.28
2019-04-20T23:10:39.107Z,77.01
2019-04-20T23:13:11.625Z,75.68
2019-04-20T23:15:53.082Z,74.06
2019-04-20T23:18:24.552Z,73.12
2019-04-20T23:21:03.715Z,72.47
2019-04-20T23:23:37.401Z,71.78
2019-04-20T23:26:12.560Z,71.81
2019-04-20T23:28:53.602Z,71.86
2019-04-20T23:31:26.785Z,72.38
2019-04-20T23:34:09.160Z,72.29
2019-04-20T23:36:40.639Z,72.31
2019-04-20T23:39:13.057Z,72.21
2019-04-20T23:41:52.517Z,72.90
2019-04-20T23:44:35.750Z,74.26
2019-04-20T23:47:25.497Z,76.98
2019-04-20T23:50:20.832Z,79.46
2019-04-20T23:52:59.690Z,81.33
2019-04-20T23:55:16.989Z,83.09
2019-04-20T23:57:54.713Z,84.01
